createdAt,value
2023-11-01T00:17:53.092Z,1.00
2023-11-01T00:23:20.770Z,1.00
2023-11-01T00:26:34.933Z,1.00
2023-11-01T00:32:17.841Z,1.00
2023-11-01T00:35:15.650Z,1.00
2023-11-01T00:41:43.791Z,1.00
2023-11-01T00:53:34.035Z,11.40
2023-11-01T00:56:12.728Z,12.10
2023-11-01T01:08:54.637Z,21.10
2023-11-01T01:11:31.168Z,20.90
2023-11-01T01:17:06.086Z,26.20
2023-11-01T01:19:44.767Z,27.20
2023-11-01T01:25:25.791Z,31.70
2023-11-01T01:28:14.735Z,32.50
2023-11-01T01:30:55.519Z,36.10
2023-11-01T01:33:47.841Z,24.50
2023-11-01T01:46:35.601Z,18.70
2023-11-01T01:49:07.303Z,16.30
2023-11-01T01:52:01.122Z,13.50
2023-11-01T01:54:45.543Z,16.70
2023-11-01T02:00:22.157Z,23.10
2023-11-01T02:05:49.210Z,20.70
2023-11-01T02:12:49.193Z,25.70
2023-11-01T02:21:49.245Z,30.00
2023-11-01T02:27:42.155Z,29.10
2023-11-01T02:45:41.374Z,30.20
2023-11-01T02:48:52.452Z,31.30
2023-11-01T02:54:45.417Z,33.10
2023-11-01T03:12:57.480Z,39.00
2023-11-01T03:24:45.729Z,54.90
2023-11-01T03:36:57.701Z,40.90
2023-11-01T03:40:04.504Z,36.20
2023-11-01T03:42:33.757Z,33.70
2023-11-01T03:48:45.179Z,28.80
2023-11-01T03:54:15.645Z,26.10
2023-11-01T03:57:00.609Z,28.70
2023-11-01T04:03:08.466Z,25.00
2023-11-01T04:06:02.961Z,26.60
2023-11-01T04:11:31.673Z,27.20
2023-11-01T04:14:18.258Z,26.10
2023-11-01T04:17:12.657Z,27.50
2023-11-01T04:20:28.899Z,30.60
2023-11-01T04:32:13.266Z,26.80
2023-11-01T04:40:42.853Z,19.20
2023-11-01T04:43:11.294Z,21.90
2023-11-01T04:48:43.152Z,25.50
2023-11-01T04:51:20.868Z,24.10
2023-11-01T05:06:01.429Z,38.20
2023-11-01T05:14:34.375Z,38.70
2023-11-01T05:17:31.710Z,36.80
2023-11-01T05:20:21.770Z,37.50
2023-11-01T05:23:00.024Z,37.20
2023-11-01T05:26:42.213Z,38.30
2023-11-01T05:29:58.187Z,38.00
2023-11-01T05:33:04.648Z,42.80
2023-11-01T05:38:33.096Z,46.10
2023-11-01T05:44:39.347Z,50.70
2023-11-01T05:47:50.207Z,47.40
2023-11-01T05:50:32.108Z,48.60
2023-11-01T05:53:16.096Z,53.50
2023-11-01T05:56:01.293Z,50.10
2023-11-01T05:59:04.630Z,48.30
2023-11-01T06:01:58.352Z,46.50
2023-11-01T06:07:42.723Z,36.20
2023-11-01T06:10:24.320Z,38.30
2023-11-01T06:16:44.330Z,39.00
2023-11-01T06:22:03.288Z,34.10
2023-11-01T06:24:54.941Z,35.70
2023-11-01T06:28:09.097Z,40.60
2023-11-01T06:33:55.067Z,39.10
2023-11-01T06:36:37.196Z,37.70
2023-11-01T06:42:01.741Z,28.40
2023-11-01T06:50:07.593Z,17.50
2023-11-01T06:52:56.829Z,23.00
2023-11-01T06:55:49.494Z,19.90
2023-11-01T06:58:58.486Z,22.20
2023-11-01T07:01:48.233Z,18.50
2023-11-01T07:04:42.301Z,23.00
2023-11-01T07:07:32.766Z,23.20
2023-11-01T07:16:27.555Z,29.10
2023-11-01T07:22:01.304Z,28.00
2023-11-01T07:24:32.384Z,30.80
2023-11-01T07:36:22.295Z,28.90
2023-11-01T07:45:19.684Z,28.80
2023-11-01T07:48:25.533Z,27.60
2023-11-01T07:51:41.413Z,25.60
2023-11-01T07:54:28.263Z,27.70
2023-11-01T07:57:24.078Z,29.60
2023-11-01T08:02:52.201Z,25.50
2023-11-01T08:11:39.440Z,22.50
2023-11-01T08:14:30.391Z,23.30
2023-11-01T08:22:51.087Z,26.60
2023-11-01T08:25:28.267Z,28.50
2023-11-01T08:28:46.930Z,28.40
2023-11-01T08:33:05.302Z,24.90
2023-11-01T08:39:58.087Z,21.20
2023-11-01T08:46:37.746Z,16.60
2023-11-01T08:56:20.031Z,6.60
2023-11-01T08:59:00.942Z,6.00
2023-11-01T09:02:16.032Z,2.10
2023-11-01T09:04:53.811Z,1.90
2023-11-01T09:07:25.663Z,1.00
2023-11-01T09:10:06.145Z,1.00
2023-11-01T09:12:42.019Z,1.00
2023-11-01T09:15:45.011Z,1.00
2023-11-01T09:18:28.247Z,1.00
2023-11-01T09:20:55.968Z,1.00
2023-11-01T09:23:24.679Z,1.00
2023-11-01T09:25:51.751Z,1.00
2023-11-01T09:28:18.785Z,1.00
2023-11-01T09:30:48.073Z,1.00
2023-11-01T09:33:15.290Z,99.90
2023-11-01T09:35:43.378Z,1.00
2023-11-01T09:38:10.319Z,1.00
2023-11-01T09:40:37.471Z,1.00
2023-11-01T09:43:08.649Z,99.90
2023-11-01T09:45:37.846Z,99.90
2023-11-01T09:48:09.066Z,99.90
2023-11-01T09:50:42.073Z,99.90
2023-11-01T09:53:09.445Z,99.90
2023-11-01T09:55:38.028Z,99.90
2023-11-01T09:58:05.968Z,99.90
2023-11-01T10:00:35.992Z,99.90
2023-11-01T10:03:05.889Z,99.90
2023-11-01T10:05:33.295Z,99.90
2023-11-01T10:08:00.248Z,99.90
2023-11-01T10:10:29.190Z,99.90
2023-11-01T10:12:56.309Z,99.90
2023-11-01T10:15:26.303Z,99.90
2023-11-01T10:17:53.611Z,99.90
2023-11-01T10:20:26.567Z,1.00
2023-11-01T10:22:53.678Z,99.90
2023-11-01T10:25:21.885Z,99.90
2023-11-01T10:27:49.896Z,99.90
2023-11-01T10:30:17.055Z,99.90
2023-11-01T10:33:11.067Z,99.90
2023-11-01T10:35:38.839Z,99.90
2023-11-01T10:38:10.697Z,1.00
2023-11-01T10:40:38.846Z,1.00
2023-11-01T10:43:06.279Z,1.00
2023-11-01T10:45:33.488Z,1.00
2023-11-01T10:48:03.928Z,1.00
2023-11-01T10:50:34.462Z,1.00
2023-11-01T10:53:03.105Z,1.00
2023-11-01T10:55:32.071Z,1.00
2023-11-01T10:57:59.192Z,1.00
2023-11-01T11:00:36.989Z,1.00
2023-11-01T11:03:45.532Z,1.00
2023-11-01T11:06:16.586Z,99.90
2023-11-01T11:08:44.627Z,99.90
2023-11-01T11:11:18.704Z,99.90
2023-11-01T11:13:50.552Z,99.90
2023-11-01T11:16:21.989Z,99.90
2023-11-01T11:18:57.306Z,99.90
2023-11-01T11:21:46.510Z,99.90
2023-11-01T11:24:32.434Z,99.90
2023-11-01T11:26:59.592Z,99.90
2023-11-01T11:29:53.674Z,99.90
2023-11-01T11:32:22.537Z,99.90
2023-11-01T11:34:49.591Z,99.90
2023-11-01T11:37:21.180Z,99.90
2023-11-01T11:40:17.306Z,99.90
2023-11-01T11:42:49.579Z,99.90
2023-11-01T11:45:30.570Z,99.90
2023-11-01T11:47:58.709Z,99.90
2023-11-01T11:50:27.539Z,99.90
2023-11-01T11:52:54.687Z,99.90
2023-11-01T11:55:44.614Z,99.90
2023-11-01T11:58:12.107Z,1.00
2023-11-01T12:00:50.869Z,1.00
2023-11-01T12:03:23.947Z,1.00
2023-11-01T12:05:56.749Z,99.90
2023-11-01T12:08:38.181Z,99.90
2023-11-01T12:11:06.457Z,99.90
2023-11-01T12:13:41.018Z,99.90
2023-11-01T12:16:08.844Z,99.90
2023-11-01T12:18:36.007Z,99.90
2023-11-01T12:21:16.043Z,99.90
2023-11-01T12:23:49.420Z,99.90
2023-11-01T12:26:16.553Z,99.90
2023-11-01T12:28:51.254Z,99.90
2023-11-01T12:31:19.433Z,99.90
2023-11-01T12:33:47.296Z,99.90
2023-11-01T12:36:28.228Z,99.90
2023-11-01T12:38:56.113Z,99.90
2023-11-01T12:41:27.925Z,99.90
2023-11-01T12:43:55.320Z,99.90
2023-11-01T12:46:22.292Z,99.90
2023-11-01T12:48:52.056Z,99.90
2023-11-01T12:51:19.144Z,1.00
2023-11-01T12:53:46.249Z,1.00
2023-11-01T12:56:13.511Z,1.00
2023-11-01T12:58:40.740Z,99.90
2023-11-01T13:01:10.052Z,99.90
2023-11-01T13:03:37.431Z,99.90
2023-11-01T13:06:24.914Z,99.90
2023-11-01T13:08:51.937Z,1.00
2023-11-01T13:11:20.321Z,1.00
2023-11-01T13:16:49.175Z,1.00
2023-11-01T13:19:18.283Z,1.00
2023-11-01T13:21:45.237Z,1.00
2023-11-01T13:24:14.862Z,1.00
2023-11-01T13:26:41.889Z,1.00
2023-11-01T13:29:09.092Z,1.00
2023-11-01T13:31:36.140Z,1.00
2023-11-01T13:34:03.296Z,1.00
2023-11-01T13:36:30.790Z,1.00
2023-11-01T13:38:57.937Z,1.00
2023-11-01T13:41:25.082Z,99.90
2023-11-01T13:43:54.479Z,99.90
2023-11-01T13:46:21.882Z,1.00
2023-11-01T13:48:49.067Z,1.00
2023-11-01T13:51:16.518Z,1.00
2023-11-01T13:53:43.573Z,1.00
2023-11-01T13:56:14.043Z,1.00
2023-11-01T13:58:44.873Z,1.00
2023-11-01T14:01:11.990Z,1.00
2023-11-01T14:03:39.694Z,1.00
2023-11-01T14:06:07.934Z,1.00
2023-11-01T14:08:35.212Z,1.00
2023-11-01T14:11:02.338Z,1.00
2023-11-01T14:13:30.275Z,1.00
2023-11-01T14:15:57.867Z,1.00
2023-11-01T14:18:25.044Z,1.00
2023-11-01T14:20:52.283Z,1.00
2023-11-01T14:23:20.404Z,1.00
2023-11-01T14:25:48.167Z,1.00
2023-11-01T14:28:18.338Z,1.00
2023-11-01T14:30:45.614Z,1.00
2023-11-01T14:33:13.309Z,1.00
2023-11-01T14:35:45.118Z,1.00
2023-11-01T14:38:12.190Z,1.00
2023-11-01T14:40:41.998Z,1.00
2023-11-01T14:43:14.544Z,1.00
2023-11-01T14:45:41.798Z,1.00
2023-11-01T14:48:09.122Z,1.00
2023-11-01T14:50:36.213Z,1.00
2023-11-01T14:53:05.687Z,1.00
2023-11-01T14:55:38.703Z,1.00
2023-11-01T14:58:05.788Z,1.00
2023-11-01T15:00:33.010Z,1.00
2023-11-01T15:03:02.286Z,1.00
2023-11-01T15:05:31.692Z,1.00
2023-11-01T15:07:58.969Z,1.00
2023-11-01T15:10:26.707Z,1.00
2023-11-01T15:12:54.500Z,1.00
2023-11-01T15:15:23.011Z,3.00
2023-11-01T15:17:51.735Z,13.10
2023-11-01T15:20:18.860Z,18.90
2023-11-01T15:22:46.358Z,22.40
2023-11-01T15:25:13.328Z,25.20
2023-11-01T15:27:40.310Z,28.00
2023-11-01T15:30:09.940Z,31.70
2023-11-01T15:32:39.109Z,34.70
2023-11-01T15:35:07.131Z,40.20
2023-11-01T15:37:34.246Z,44.00
2023-11-01T15:40:04.312Z,48.80
2023-11-01T15:42:33.767Z,51.10
2023-11-01T15:45:01.341Z,52.10
2023-11-01T15:47:29.129Z,53.80
2023-11-01T15:49:56.566Z,56.00
2023-11-01T15:52:24.361Z,58.00
2023-11-01T15:54:52.396Z,59.30
2023-11-01T15:57:22.412Z,61.00
2023-11-01T15:59:50.556Z,62.10
2023-11-01T16:02:17.764Z,62.60
2023-11-01T16:04:45.002Z,65.00
2023-11-01T16:07:12.145Z,68.00
2023-11-01T16:09:39.492Z,71.90
2023-11-01T16:12:39.778Z,73.80
2023-11-01T16:15:24.743Z,77.70
2023-11-01T16:18:53.523Z,80.10
2023-11-01T16:27:32.317Z,86.20
2023-11-01T16:32:57.197Z,90.30
2023-11-01T16:35:26.445Z,91.60
2023-11-01T16:37:54.748Z,92.00
2023-11-01T16:40:31.258Z,93.20
2023-11-01T16:42:58.674Z,94.70
2023-11-01T16:45:26.051Z,95.80
2023-11-01T16:47:54.470Z,96.60
2023-11-01T16:50:21.532Z,97.00
2023-11-01T16:52:48.577Z,97.70
2023-11-01T16:55:15.656Z,98.00
2023-11-01T16:57:42.598Z,97.30
2023-11-01T17:00:11.209Z,97.00
2023-11-01T17:05:11.509Z,96.80
2023-11-01T17:07:40.483Z,96.70
2023-11-01T17:10:07.670Z,96.50
2023-11-01T17:12:36.565Z,94.70
2023-11-01T17:15:05.390Z,94.70
2023-11-01T17:17:32.462Z,94.90
2023-11-01T17:19:59.680Z,94.30
2023-11-01T17:22:45.723Z,94.00
2023-11-01T17:25:43.845Z,93.70
2023-11-01T17:28:38.280Z,92.60
2023-11-01T17:31:12.922Z,93.10
2023-11-01T17:33:45.414Z,94.50
2023-11-01T17:36:28.344Z,94.50
2023-11-01T17:39:01.543Z,95.30
2023-11-01T17:41:50.506Z,95.50
2023-11-01T17:44:18.869Z,95.70
2023-11-01T17:46:46.082Z,96.20
2023-11-01T17:49:48.867Z,96.40
2023-11-01T17:52:29.038Z,96.40
2023-11-01T17:54:57.305Z,96.70
2023-11-01T17:57:24.850Z,96.30
2023-11-01T17:59:52.334Z,96.60
2023-11-01T18:02:28.933Z,95.40
2023-11-01T18:05:00.752Z,96.10
2023-11-01T18:07:28.197Z,96.40
2023-11-01T18:09:58.091Z,95.90
2023-11-01T18:12:25.207Z,96.10
2023-11-01T18:14:55.265Z,96.00
2023-11-01T18:17:23.176Z,95.40
2023-11-01T18:19:55.777Z,94.50
2023-11-01T18:22:44.796Z,94.20
2023-11-01T18:25:47.731Z,94.20
2023-11-01T18:28:16.763Z,93.00
2023-11-01T18:30:44.520Z,93.50
2023-11-01T18:33:12.173Z,93.90
2023-11-01T18:35:39.347Z,92.10
2023-11-01T18:38:11.708Z,92.70
2023-11-01T18:40:40.216Z,92.80
2023-11-01T18:43:07.523Z,92.80
2023-11-01T18:45:36.351Z,93.10
2023-11-01T18:48:04.223Z,92.90
2023-11-01T18:50:31.484Z,92.80
2023-11-01T18:53:05.847Z,93.10
2023-11-01T18:55:34.401Z,92.90
2023-11-01T18:58:01.417Z,93.90
2023-11-01T19:00:28.818Z,92.80
2023-11-01T19:03:04.427Z,92.80
2023-11-01T19:05:34.817Z,94.10
2023-11-01T19:08:06.350Z,95.20
2023-11-01T19:10:37.013Z,95.50
2023-11-01T19:13:04.833Z,96.70
2023-11-01T19:15:41.595Z,96.80
2023-11-01T19:18:16.746Z,96.60
2023-11-01T19:20:58.780Z,96.50
2023-11-01T19:23:29.009Z,97.10
2023-11-01T19:25:57.195Z,97.60
2023-11-01T19:28:28.424Z,97.60
2023-11-01T19:31:12.609Z,97.70
2023-11-01T19:33:42.451Z,97.00
2023-11-01T19:36:16.155Z,96.40
2023-11-01T19:38:44.748Z,96.00
2023-11-01T19:41:14.824Z,93.50
2023-11-01T19:46:28.042Z,93.80
2023-11-01T19:48:57.407Z,94.90
2023-11-01T19:51:28.333Z,94.80
2023-11-01T19:53:55.926Z,94.50
2023-11-01T19:56:27.540Z,94.30
2023-11-01T19:58:58.554Z,93.40
2023-11-01T20:01:30.553Z,93.00
2023-11-01T20:04:03.475Z,91.80
2023-11-01T20:06:33.580Z,81.40
2023-11-01T20:09:04.487Z,81.30
2023-11-01T20:11:31.484Z,81.70
2023-11-01T20:14:01.250Z,81.30
2023-11-01T20:16:30.986Z,82.30
2023-11-01T20:19:10.266Z,83.80
2023-11-01T20:21:40.245Z,85.10
2023-11-01T20:24:14.485Z,87.30
2023-11-01T20:26:43.079Z,89.70
2023-11-01T20:29:22.529Z,90.90
2023-11-01T20:31:57.640Z,91.40
2023-11-01T20:34:42.390Z,91.30
2023-11-01T20:37:35.993Z,90.10
2023-11-01T20:40:11.325Z,89.40
2023-11-01T20:45:46.344Z,87.10
2023-11-01T20:48:16.414Z,87.80
2023-11-01T20:50:50.464Z,90.00
2023-11-01T20:53:22.180Z,88.60
2023-11-01T20:55:51.687Z,86.20
2023-11-01T20:58:20.131Z,81.80
2023-11-01T21:00:47.593Z,81.90
2023-11-01T21:03:17.786Z,81.40
2023-11-01T21:05:47.011Z,82.80
2023-11-01T21:08:15.713Z,83.30
2023-11-01T21:10:42.910Z,85.90
2023-11-01T21:13:15.911Z,87.20
2023-11-01T21:15:46.209Z,90.50
2023-11-01T21:18:13.373Z,91.60
2023-11-01T21:20:45.286Z,91.10
2023-11-01T21:23:13.022Z,89.90
2023-11-01T21:25:46.808Z,89.70
2023-11-01T21:28:17.927Z,87.00
2023-11-01T21:30:45.976Z,84.60
2023-11-01T21:33:13.945Z,86.00
2023-11-01T21:35:41.690Z,86.10
2023-11-01T21:38:10.332Z,85.10
2023-11-01T21:40:37.421Z,85.30
2023-11-01T21:43:10.095Z,84.40
2023-11-01T21:45:51.024Z,85.90
2023-11-01T21:48:22.572Z,87.50
2023-11-01T21:50:55.570Z,90.00
2023-11-01T21:53:22.960Z,86.80
2023-11-01T21:55:56.125Z,81.70
2023-11-01T21:58:26.583Z,71.70
2023-11-01T22:00:59.324Z,75.00
2023-11-01T22:03:47.471Z,77.10
2023-11-01T22:06:22.153Z,78.60
2023-11-01T22:09:05.626Z,89.90
2023-11-01T22:11:38.718Z,92.00
2023-11-01T22:14:08.694Z,91.70
2023-11-01T22:16:37.910Z,93.50
2023-11-01T22:19:37.831Z,96.10
2023-11-01T22:22:12.215Z,97.20
2023-11-01T22:24:41.532Z,98.70
2023-11-01T22:27:12.469Z,99.80
2023-11-01T22:29:44.325Z,99.90
2023-11-01T22:32:20.326Z,99.90
2023-11-01T22:34:48.419Z,99.90
2023-11-01T22:37:17.406Z,99.90
2023-11-01T22:39:45.961Z,99.90
2023-11-01T22:42:19.107Z,99.90
2023-11-01T22:44:48.380Z,99.90
2023-11-01T22:47:15.663Z,99.90
2023-11-01T22:49:43.055Z,99.90
2023-11-01T22:52:10.786Z,99.90
2023-11-01T22:54:39.066Z,99.90
2023-11-01T22:57:09.509Z,99.90
2023-11-01T22:59:38.710Z,99.90
2023-11-01T23:02:09.118Z,99.90
2023-11-01T23:04:37.365Z,99.90
2023-11-01T23:07:04.808Z,99.90
2023-11-01T23:09:32.999Z,99.90
2023-11-01T23:12:00.077Z,99.90
2023-11-01T23:14:27.055Z,99.90
2023-11-01T23:16:54.165Z,99.90
2023-11-01T23:19:22.629Z,99.90
2023-11-01T23:21:50.617Z,99.90
2023-11-01T23:24:20.083Z,99.90
2023-11-01T23:27:17.152Z,99.90
2023-11-01T23:29:44.115Z,99.90
2023-11-01T23:32:13.752Z,99.90
2023-11-01T23:34:49.986Z,99.90
2023-11-01T23:37:27.318Z,99.90
2023-11-01T23:39:54.372Z,99.90
2023-11-01T23:42:25.427Z,99.90
2023-11-01T23:44:54.373Z,99.90
2023-11-01T23:47:43.980Z,99.90
2023-11-01T23:50:36.765Z,99.90
2023-11-01T23:53:09.580Z,99.90
2023-11-01T23:55:42.582Z,99.90
2023-11-01T23:58:09.619Z,99.90
